Reykjavik, Iceland
Current Conditions -  °F | °C
As of 5:00 AM on Tuesday 21 Oct 2014 (Local Time) from BIRK Reporting Station
Moderate Snow Moderate Snow  
Wind Chill: 26°   Ceiling: 800
Heat Index: 32°   Visibility: 1.5mi
Dew Point: 30°   Wind: 7mph
Humidity: 93%   Direction: 360°N
Pressure: 29.44"   Gusts: NA
Location:  64.14°N, 21.92°W
Report Text: BIRK 210500Z 36006KT 2500 SN FEW005 BKN008 OVC012 00/M01 Q0997
Loading
Personal Weather Stations






























Interactive Weather Map
Tropical Storm Tracking
New forecast layout! Learn more

10-Day Weather Forecast

Advertisements
Track Severe Weather on mobile